createdAt,value
2019-01-05T00:00:39.553Z,100701.52
2019-01-05T00:03:30.906Z,100697.58
2019-01-05T00:06:17.940Z,100692.17
2019-01-05T00:09:15.354Z,100690.34
2019-01-05T00:12:02.297Z,100691.78
2019-01-05T00:15:02.753Z,100690.56
2019-01-05T00:17:49.700Z,100691.13
2019-01-05T00:20:35.567Z,100691.13
2019-01-05T00:23:38.993Z,100688.63
2019-01-05T00:26:26.238Z,100695.41
2019-01-05T00:29:14.500Z,100695.80
2019-01-05T00:32:40.302Z,100684.97
2019-01-05T00:35:34.394Z,100684.97
2019-01-05T00:38:28.782Z,100688.91
2019-01-05T00:41:20.678Z,100683.31
2019-01-05T00:44:17.794Z,100674.59
2019-01-05T00:47:06.468Z,100672.75
2019-01-05T00:49:54.793Z,100673.39
2019-01-05T00:52:41.697Z,100673.39
2019-01-05T00:55:28.805Z,100676.45
2019-01-05T00:58:19.895Z,100671.76
2019-01-05T01:01:11.276Z,100678.97
2019-01-05T01:04:11.599Z,100673.06
2019-01-05T01:07:15.233Z,100673.36
2019-01-05T01:10:02.179Z,100661.55
2019-01-05T01:12:50.490Z,100663.19
2019-01-05T01:15:37.577Z,100666.30
2019-01-05T01:18:25.846Z,100665.69
2019-01-05T01:21:15.565Z,100663.81
2019-01-05T01:24:02.542Z,100661.05
2019-01-05T01:26:46.665Z,100659.27
2019-01-05T01:29:38.680Z,100656.56
2019-01-05T01:32:25.693Z,100650.13
2019-01-05T01:35:20.070Z,100643.69
2019-01-05T01:38:51.879Z,100645.56
2019-01-05T01:41:58.689Z,100642.94
2019-01-05T01:45:05.491Z,100639.38
2019-01-05T01:47:54.451Z,100636.38
2019-01-05T01:50:49.041Z,100639.08
2019-01-05T01:53:39.366Z,100633.44
2019-01-05T01:56:38.218Z,100624.16
2019-01-05T01:59:29.196Z,100615.28
2019-01-05T02:02:13.360Z,100611.98
2019-01-05T02:05:01.734Z,100606.11
2019-01-05T02:07:42.163Z,100601.60
2019-01-05T02:10:39.586Z,100596.97
2019-01-05T02:13:32.826Z,100589.77
2019-01-05T02:16:25.339Z,100586.78
2019-01-05T02:19:40.417Z,100581.27
2019-01-05T02:23:04.130Z,100574.54
2019-01-05T02:26:58.158Z,100578.30
2019-01-05T02:30:33.995Z,100578.28
2019-01-05T02:33:51.344Z,100569.14
2019-01-05T02:37:14.825Z,100556.53
2019-01-05T02:40:46.699Z,100550.13
2019-01-05T02:44:10.600Z,100543.83
2019-01-05T02:47:48.124Z,100541.39
2019-01-05T02:51:29.080Z,100541.39
2019-01-05T02:54:50.156Z,100540.01
2019-01-05T02:58:22.581Z,100536.42
2019-01-05T03:02:14.964Z,100536.20
2019-01-05T03:05:42.200Z,100544.45
2019-01-05T03:09:14.829Z,100538.83
2019-01-05T03:12:54.715Z,100542.01
2019-01-05T03:16:13.006Z,100545.13
2019-01-05T03:19:26.952Z,100542.81
2019-01-05T03:23:11.728Z,100546.87
2019-01-05T03:26:51.456Z,100545.20
2019-01-05T03:30:12.761Z,100537.16
2019-01-05T03:33:33.455Z,100533.52
2019-01-05T03:37:15.152Z,100527.48
2019-01-05T03:40:44.109Z,100524.23
2019-01-05T03:44:15.122Z,100520.87
2019-01-05T03:47:58.520Z,100523.45
2019-01-05T03:51:55.947Z,100518.41
2019-01-05T03:55:38.595Z,100507.77
2019-01-05T03:59:32.575Z,100507.08
2019-01-05T04:03:01.543Z,100519.63
2019-01-05T04:06:37.145Z,100513.34
2019-01-05T04:10:18.538Z,100509.16
2019-01-05T04:14:01.683Z,100506.25
2019-01-05T04:17:25.902Z,100504.92
2019-01-05T04:21:01.861Z,100503.91
2019-01-05T04:24:17.700Z,100503.91
2019-01-05T04:27:46.689Z,100498.18
2019-01-05T04:31:30.013Z,100489.67
2019-01-05T04:35:01.023Z,100489.67
2019-01-05T04:38:39.508Z,100488.59
2019-01-05T04:41:46.032Z,100490.95
2019-01-05T04:45:18.979Z,100484.00
2019-01-05T04:48:59.023Z,100484.00
2019-01-05T04:52:58.442Z,100487.13
2019-01-05T04:56:23.997Z,100475.02
2019-01-05T04:59:34.088Z,100474.26
2019-01-05T05:03:07.946Z,100473.61
2019-01-05T05:07:01.564Z,100476.38
2019-01-05T05:10:24.456Z,100474.55
2019-01-05T05:13:52.668Z,100468.41
2019-01-05T05:17:40.089Z,100475.83
2019-01-05T05:20:53.325Z,100473.60
2019-01-05T05:24:17.496Z,100473.60
2019-01-05T05:27:52.056Z,100474.11
2019-01-05T05:31:38.620Z,100469.92
2019-01-05T05:35:21.356Z,100466.80
2019-01-05T05:38:55.279Z,100465.09
2019-01-05T05:42:21.847Z,100461.56
2019-01-05T05:45:57.653Z,100462.42
2019-01-05T05:49:40.203Z,100462.87
2019-01-05T05:52:54.784Z,100463.38
2019-01-05T05:56:15.293Z,100471.28
2019-01-05T05:59:37.657Z,100465.59
2019-01-05T06:03:23.671Z,100467.81
2019-01-05T06:06:46.953Z,100463.33
2019-01-05T06:10:29.553Z,100466.66
2019-01-05T06:14:13.877Z,100465.64
2019-01-05T06:17:12.435Z,100471.13
2019-01-05T06:20:47.818Z,100471.78
2019-01-05T06:24:30.589Z,100469.02
2019-01-05T06:28:06.709Z,100471.64
2019-01-05T06:31:47.795Z,100475.56
2019-01-05T06:35:27.034Z,100471.64
2019-01-05T06:39:07.185Z,100468.77
2019-01-05T06:42:36.174Z,100473.09
2019-01-05T06:46:18.422Z,100475.34
2019-01-05T06:50:04.672Z,100472.08
2019-01-05T06:53:30.967Z,100466.67
2019-01-05T06:57:11.017Z,100466.35
2019-01-05T07:01:03.983Z,100462.70
2019-01-05T07:04:46.853Z,100461.25
2019-01-05T07:08:09.738Z,100450.66
2019-01-05T07:11:33.837Z,100447.38
2019-01-05T07:14:49.617Z,100438.38
2019-01-05T07:18:25.056Z,100429.93
2019-01-05T07:22:30.373Z,100429.93
2019-01-05T07:26:23.665Z,100425.43
2019-01-05T07:29:46.623Z,100430.94
2019-01-05T07:33:08.580Z,100430.94
2019-01-05T07:36:47.612Z,100433.00
2019-01-05T07:40:10.064Z,100434.89
2019-01-05T07:44:02.386Z,100440.43
2019-01-05T07:47:30.082Z,100440.43
2019-01-05T07:50:53.845Z,100439.00
2019-01-05T07:54:09.844Z,100436.55
2019-01-05T07:57:49.868Z,100436.01
2019-01-05T08:01:16.559Z,100428.41
2019-01-05T08:04:53.670Z,100426.66
2019-01-05T08:08:17.645Z,100419.87
2019-01-05T08:11:28.725Z,100411.02
2019-01-05T08:14:44.445Z,100408.97
2019-01-05T08:18:08.708Z,100399.08
2019-01-05T08:21:51.712Z,100403.52
2019-01-05T08:25:11.748Z,100392.86
2019-01-05T08:28:52.568Z,100389.78
2019-01-05T08:32:43.063Z,100390.95
2019-01-05T08:36:06.602Z,100381.84
2019-01-05T08:39:39.355Z,100377.38
2019-01-05T08:43:12.227Z,100374.19
2019-01-05T08:46:36.192Z,100372.33
2019-01-05T08:49:54.789Z,100376.66
2019-01-05T08:53:35.181Z,100372.06
2019-01-05T08:57:19.300Z,100380.18
2019-01-05T09:00:52.480Z,100368.58
2019-01-05T09:04:25.375Z,100368.67
2019-01-05T09:07:43.470Z,100364.20
2019-01-05T09:11:14.105Z,100366.80
2019-01-05T09:14:31.277Z,100362.96
2019-01-05T09:18:02.801Z,100354.54
2019-01-05T09:21:44.167Z,100350.17
2019-01-05T09:25:12.011Z,100339.88
2019-01-05T09:29:11.412Z,100333.11
2019-01-05T09:32:50.859Z,100320.52
2019-01-05T09:36:17.025Z,100313.09
2019-01-05T09:40:00.343Z,100310.23
2019-01-05T09:43:35.357Z,100297.49
2019-01-05T09:46:46.616Z,100291.88
2019-01-05T09:50:25.476Z,100273.81
2019-01-05T09:53:53.572Z,100268.13
2019-01-05T09:57:17.254Z,100254.64
2019-01-05T10:00:42.564Z,100257.67
2019-01-05T10:04:16.990Z,100244.98
2019-01-05T10:08:12.267Z,100236.78
2019-01-05T10:11:39.704Z,100224.71
2019-01-05T10:15:39.074Z,100211.62
2019-01-05T10:19:13.219Z,100203.08
2019-01-05T10:22:36.831Z,100201.38
2019-01-05T10:26:18.235Z,100190.30
2019-01-05T10:30:17.922Z,100186.39
2019-01-05T10:33:58.124Z,100169.03
2019-01-05T10:37:18.029Z,100160.41
2019-01-05T10:41:03.977Z,100156.44
2019-01-05T10:44:36.933Z,100148.82
2019-01-05T10:47:59.815Z,100133.56
2019-01-05T10:51:22.554Z,100122.92
2019-01-05T10:55:05.830Z,100115.67
2019-01-05T10:58:45.006Z,100117.18
2019-01-05T11:02:28.200Z,100111.75
2019-01-05T11:06:05.690Z,100107.22
2019-01-05T11:09:45.436Z,100094.16
2019-01-05T11:13:27.452Z,100084.66
2019-01-05T11:17:14.381Z,100079.30
2019-01-05T11:20:43.378Z,100082.00
2019-01-05T11:24:27.373Z,100076.51
2019-01-05T11:28:00.454Z,100073.66
2019-01-05T11:31:32.386Z,100078.09
2019-01-05T11:34:55.142Z,100058.73
2019-01-05T11:38:33.134Z,100061.16
2019-01-05T11:42:11.136Z,100054.06
2019-01-05T11:45:37.683Z,100045.25
2019-01-05T11:49:05.486Z,100037.81
2019-01-05T11:52:37.566Z,100038.26
2019-01-05T11:56:21.233Z,100030.60
2019-01-05T11:59:49.486Z,100028.84
2019-01-05T12:03:04.733Z,100014.45
2019-01-05T12:06:32.756Z,100020.89
2019-01-05T12:09:53.366Z,100021.16
2019-01-05T12:13:46.984Z,100017.09
2019-01-05T12:17:13.156Z,100011.73
2019-01-05T12:20:43.843Z,100002.84
2019-01-05T12:24:09.335Z,99998.90
2019-01-05T12:27:39.627Z,100001.06
2019-01-05T12:31:12.605Z,99993.06
2019-01-05T12:35:02.030Z,99991.02
2019-01-05T12:38:39.348Z,99994.25
2019-01-05T12:42:32.860Z,99982.09
2019-01-05T12:46:24.635Z,99979.52
2019-01-05T12:49:40.917Z,99975.69
2019-01-05T12:53:15.089Z,99965.02
2019-01-05T12:56:55.158Z,99957.66
2019-01-05T13:00:24.158Z,99957.59
2019-01-05T13:03:51.999Z,99950.63
2019-01-05T13:07:40.574Z,99951.40
2019-01-05T13:11:38.630Z,99947.63
2019-01-05T13:15:03.649Z,99945.22
2019-01-05T13:18:38.908Z,99939.97
2019-01-05T13:22:11.917Z,99937.12
2019-01-05T13:25:21.569Z,99929.89
2019-01-05T13:29:03.067Z,99924.02
2019-01-05T13:33:05.596Z,99924.97
2019-01-05T13:36:45.989Z,99915.08
2019-01-05T13:40:17.125Z,99929.47
2019-01-05T13:43:48.409Z,99925.88
2019-01-05T13:47:43.385Z,99922.92
2019-01-05T13:51:10.332Z,99916.47
2019-01-05T13:54:26.442Z,99913.55
2019-01-05T13:57:21.222Z,99904.94
2019-01-05T14:00:05.133Z,99908.18
2019-01-05T14:02:51.907Z,99907.05
2019-01-05T14:05:55.294Z,99902.37
2019-01-05T14:08:42.606Z,99890.14
2019-01-05T14:11:43.101Z,99895.73
2019-01-05T14:14:31.360Z,99890.41
2019-01-05T14:17:22.830Z,99880.91
2019-01-05T14:20:11.961Z,99881.00
2019-01-05T14:22:58.819Z,99881.78
2019-01-05T14:25:45.922Z,99880.66
2019-01-05T14:28:33.163Z,99876.73
2019-01-05T14:31:24.672Z,99872.81
2019-01-05T14:34:25.616Z,99870.18
2019-01-05T14:37:26.235Z,99870.40
2019-01-05T14:40:20.379Z,99873.98
2019-01-05T14:43:13.066Z,99870.63
2019-01-05T14:46:00.381Z,99869.61
2019-01-05T14:48:51.782Z,99862.92
2019-01-05T14:51:52.365Z,99863.32
2019-01-05T14:54:45.909Z,99865.41
2019-01-05T14:57:52.510Z,99865.95
2019-01-05T15:00:44.156Z,99856.95
2019-01-05T15:03:50.843Z,99860.24
2019-01-05T15:06:48.257Z,99851.68
2019-01-05T15:09:39.916Z,99862.41
2019-01-05T15:12:27.075Z,99864.45
2019-01-05T15:15:33.633Z,99849.06
2019-01-05T15:18:20.761Z,99853.95
2019-01-05T15:21:09.109Z,99852.34
2019-01-05T15:23:49.515Z,99851.03
2019-01-05T15:26:43.614Z,99850.73
2019-01-05T15:29:30.738Z,99852.60
2019-01-05T15:32:19.031Z,99850.34
2019-01-05T15:35:06.174Z,99841.11
2019-01-05T15:37:53.905Z,99846.37
2019-01-05T15:40:58.531Z,99849.37
2019-01-05T15:43:58.976Z,99851.52
2019-01-05T15:47:02.293Z,99848.59
2019-01-05T15:50:02.879Z,99851.94
2019-01-05T15:52:54.406Z,99848.13
2019-01-05T15:55:52.105Z,99848.13
2019-01-05T15:58:49.247Z,99845.86
2019-01-05T16:01:38.597Z,99843.69
2019-01-05T16:04:45.385Z,99840.73
2019-01-05T16:07:32.302Z,99843.60
2019-01-05T16:10:19.599Z,99831.98
2019-01-05T16:13:19.947Z,99835.80
2019-01-05T16:16:08.319Z,99835.80
2019-01-05T16:18:55.225Z,99843.61
2019-01-05T16:21:42.357Z,99843.03
2019-01-05T16:24:29.558Z,99837.25
2019-01-05T16:27:10.690Z,99835.90
2019-01-05T16:30:02.068Z,99838.83
2019-01-05T16:32:49.159Z,99839.38
2019-01-05T16:35:52.860Z,99839.38
2019-01-05T16:38:41.148Z,99832.05
2019-01-05T16:41:29.641Z,99832.05
2019-01-05T16:44:24.045Z,99837.83
2019-01-05T16:47:30.865Z,99830.33
2019-01-05T16:50:26.631Z,99825.55
2019-01-05T16:53:24.026Z,99831.59
2019-01-05T16:56:10.925Z,99816.38
2019-01-05T16:58:59.142Z,99816.38
2019-01-05T17:01:46.295Z,99819.74
2019-01-05T17:04:33.545Z,99810.67
2019-01-05T17:07:30.823Z,99814.14
2019-01-05T17:10:17.698Z,99814.14
2019-01-05T17:13:15.222Z,99816.94
2019-01-05T17:16:13.168Z,99819.63
2019-01-05T17:18:54.573Z,99819.63
2019-01-05T17:21:48.981Z,99815.85
2019-01-05T17:24:36.351Z,99817.87
2019-01-05T17:27:23.162Z,99808.88
2019-01-05T17:30:11.297Z,99813.10
2019-01-05T17:32:59.608Z,99813.10
2019-01-05T17:35:51.113Z,99802.34
2019-01-05T17:38:48.493Z,99802.56
2019-01-05T17:41:35.306Z,99802.56
2019-01-05T17:44:14.883Z,99799.17
2019-01-05T17:47:04.204Z,99799.17
2019-01-05T17:49:55.551Z,99796.47
2019-01-05T17:52:40.490Z,99798.41
2019-01-05T17:55:27.363Z,99789.63
2019-01-05T17:58:21.770Z,99785.86
2019-01-05T18:01:08.726Z,99785.86
2019-01-05T18:03:55.924Z,99782.13
2019-01-05T18:06:47.369Z,99779.95
2019-01-05T18:09:31.899Z,99773.93
2019-01-05T18:12:18.904Z,99768.80
2019-01-05T18:15:07.298Z,99772.05
2019-01-05T18:17:54.269Z,99776.17
2019-01-05T18:20:51.890Z,99772.28
2019-01-05T18:23:43.005Z,99765.36
2019-01-05T18:26:43.464Z,99758.72
2019-01-05T18:29:31.415Z,99758.72
2019-01-05T18:32:19.831Z,99757.80
2019-01-05T18:35:26.569Z,99754.05
2019-01-05T18:38:13.314Z,99754.05
2019-01-05T18:41:00.647Z,99748.03
2019-01-05T18:44:01.244Z,99744.45
2019-01-05T18:46:48.655Z,99740.39
2019-01-05T18:49:40.091Z,99740.39
2019-01-05T18:52:27.003Z,99723.86
2019-01-05T18:55:18.117Z,99723.86
2019-01-05T18:58:09.422Z,99732.60
2019-01-05T19:00:56.593Z,99715.98
2019-01-05T19:03:44.899Z,99715.98
2019-01-05T19:06:42.215Z,99712.51
2019-01-05T19:09:39.551Z,99724.70
2019-01-05T19:12:27.986Z,99710.33
2019-01-05T19:15:16.290Z,99704.44
2019-01-05T19:17:59.552Z,99704.44
2019-01-05T19:20:59.782Z,99707.52
2019-01-05T19:23:31.271Z,99703.28
2019-01-05T19:26:25.491Z,99701.48
2019-01-05T19:29:17.552Z,99705.34
2019-01-05T19:32:04.618Z,99705.34
2019-01-05T19:34:51.683Z,99709.80
2019-01-05T19:37:52.522Z,99699.98
2019-01-05T19:40:39.997Z,99696.70
2019-01-05T19:43:37.199Z,99696.70
2019-01-05T19:46:20.845Z,99698.02
2019-01-05T19:49:07.984Z,99689.49
2019-01-05T19:51:55.112Z,99689.49
2019-01-05T19:54:43.488Z,99646.97
2019-01-05T19:57:30.865Z,99686.22
2019-01-05T20:00:23.202Z,99670.22
2019-01-05T20:03:10.382Z,99671.30
2019-01-05T20:06:05.106Z,99668.49
2019-01-05T20:09:13.557Z,99670.05
2019-01-05T20:12:07.134Z,99670.05
2019-01-05T20:15:07.247Z,99658.66
2019-01-05T20:17:57.090Z,99653.72
2019-01-05T20:20:44.453Z,99653.91
2019-01-05T20:23:39.135Z,99648.77
2019-01-05T20:26:42.871Z,99648.77
2019-01-05T20:29:43.179Z,99642.47
2019-01-05T20:32:34.612Z,99645.30
2019-01-05T20:35:26.346Z,99640.77
2019-01-05T20:38:17.957Z,99640.77
2019-01-05T20:41:18.822Z,99642.87
2019-01-05T20:44:08.240Z,99633.29
2019-01-05T20:46:57.620Z,99633.29
2019-01-05T20:49:49.770Z,99622.09
2019-01-05T20:52:36.973Z,99622.09
2019-01-05T20:55:25.918Z,99625.48
2019-01-05T20:58:23.268Z,99625.48
2019-01-05T21:01:22.171Z,99617.78
2019-01-05T21:04:22.593Z,99602.17
2019-01-05T21:07:14.155Z,99600.35
2019-01-05T21:10:09.420Z,99600.35
2019-01-05T21:12:56.159Z,99599.59
2019-01-05T21:15:44.641Z,99599.59
2019-01-05T21:18:35.805Z,99588.19
2019-01-05T21:21:22.915Z,99588.19
2019-01-05T21:24:10.408Z,99586.18
2019-01-05T21:26:58.877Z,99586.18
2019-01-05T21:30:09.563Z,99573.91
2019-01-05T21:33:07.022Z,99574.28
2019-01-05T21:36:35.026Z,99560.80
2019-01-05T21:39:31.540Z,99562.11
2019-01-05T21:42:19.926Z,99556.48
2019-01-05T21:45:20.768Z,99555.87
2019-01-05T21:48:12.228Z,99552.78
2019-01-05T21:50:59.425Z,99549.38
2019-01-05T21:53:52.491Z,99553.53
2019-01-05T21:56:40.840Z,99553.53
2019-01-05T21:59:32.432Z,99543.51
2019-01-05T22:02:19.579Z,99543.51
2019-01-05T22:05:23.215Z,99542.90
2019-01-05T22:08:05.441Z,99525.73
2019-01-05T22:10:54.674Z,99526.55
2019-01-05T22:13:41.834Z,99511.16
2019-01-05T22:16:33.248Z,99502.37
2019-01-05T22:19:21.482Z,99495.44
2019-01-05T22:22:08.554Z,99493.35
2019-01-05T22:24:59.895Z,99493.35
2019-01-05T22:27:46.922Z,99480.07
2019-01-05T22:30:42.906Z,99482.80
2019-01-05T22:33:29.792Z,99472.22
2019-01-05T22:36:16.889Z,99471.62
2019-01-05T22:39:17.634Z,99467.06
2019-01-05T22:42:17.071Z,99467.90
2019-01-05T22:44:55.947Z,99462.45
2019-01-05T22:47:46.990Z,99458.02
2019-01-05T22:50:33.958Z,99452.77
2019-01-05T22:53:25.177Z,99449.56
2019-01-05T22:56:28.857Z,99440.56
2019-01-05T22:59:20.029Z,99440.56
2019-01-05T23:02:15.368Z,99436.53
2019-01-05T23:05:12.731Z,99440.94
2019-01-05T23:08:13.098Z,99435.38
2019-01-05T23:11:04.446Z,99435.38
2019-01-05T23:14:04.944Z,99445.64
2019-01-05T23:17:11.431Z,99436.71
2019-01-05T23:19:58.707Z,99436.71
2019-01-05T23:22:53.271Z,99431.14
2019-01-05T23:25:40.265Z,99424.97
2019-01-05T23:28:27.209Z,99418.05
2019-01-05T23:31:30.856Z,99418.05
2019-01-05T23:34:12.112Z,99412.11
2019-01-05T23:37:00.586Z,99418.83
2019-01-05T23:39:47.843Z,99418.83
2019-01-05T23:42:34.750Z,99409.28
2019-01-05T23:45:21.604Z,99420.64
2019-01-05T23:48:09.994Z,99418.02
2019-01-05T23:50:56.935Z,99414.34
2019-01-05T23:53:43.908Z,99414.34
2019-01-05T23:56:32.245Z,99414.50
2019-01-05T23:59:19.500Z,99414.50
